EZY56TR LXGB-EGGD
Flight info
| Callsign | EZY56TR |
|---|---|
| Flight time | N/A |
| Altitude | 36000 |
| Route | PIMOS M985 MGA DCT BLN DCT MORAL DCT BEXID DCT VTB DCT SIE DCT XERMA DCT ARLUN DCT BUGIX DCT UNGAS DCT DELOG DCT NOVAN DCT RUSIB DCT NOZHU DCT SHIRI DCT TOJAQ |
| Aircraft | A320/M-SDE2E3FGHIJ1RWXYZ/LB1 |
Departure
| Time | 2026-05-04 21:44 |
|---|---|
| Airport | Gibraltar Airport (LXGB) |
Arrival
| Time | N/A |
|---|---|
| Airport | Bristol Airport (EGGD) |
| Time | Latitude | Longitude | Altitude | Speed | Heading |
|---|---|---|---|---|---|
| 2026-05-04 21:26 | 36.15297 | -5.34714 | 15 ft | 0 kts | 359° |
| 2026-05-04 21:36 | 36.15294 | -5.34714 | 15 ft | 2 kts | 358° |
| 2026-05-04 21:36 | 36.15280 | -5.34712 | 15 ft | 2 kts | 354° |
| 2026-05-04 21:37 | 36.15264 | -5.34710 | 15 ft | 2 kts | 355° |
| 2026-05-04 21:37 | 36.15249 | -5.34708 | 15 ft | 2 kts | 355° |
| 2026-05-04 21:37 | 36.15236 | -5.34707 | 15 ft | 0 kts | 355° |
| 2026-05-04 21:37 | 36.15231 | -5.34707 | 15 ft | 0 kts | 38° |
| 2026-05-04 21:38 | 36.15228 | -5.34712 | 15 ft | 0 kts | 90° |
| 2026-05-04 21:38 | 36.15228 | -5.34715 | 15 ft | 0 kts | 92° |
| 2026-05-04 21:38 | 36.15228 | -5.34714 | 15 ft | 0 kts | 92° |
| 2026-05-04 21:39 | 36.15227 | -5.34703 | 15 ft | 2 kts | 91° |
| 2026-05-04 21:39 | 36.15228 | -5.34670 | 15 ft | 4 kts | 88° |
| 2026-05-04 21:40 | 36.15229 | -5.34621 | 15 ft | 6 kts | 88° |
| 2026-05-04 21:40 | 36.15231 | -5.34561 | 15 ft | 7 kts | 88° |
| 2026-05-04 21:40 | 36.15234 | -5.34488 | 15 ft | 8 kts | 87° |
| 2026-05-04 21:40 | 36.15237 | -5.34405 | 15 ft | 9 kts | 87° |
| 2026-05-04 21:41 | 36.15242 | -5.34313 | 15 ft | 7 kts | 86° |
| 2026-05-04 21:41 | 36.15243 | -5.34263 | 15 ft | 3 kts | 98° |
| 2026-05-04 21:41 | 36.15243 | -5.34262 | 15 ft | 0 kts | 98° |
| 2026-05-04 21:42 | 36.15226 | -5.34231 | 15 ft | 6 kts | 144° |
| 2026-05-04 21:42 | 36.15178 | -5.34215 | 15 ft | 6 kts | 156° |
| 2026-05-04 21:42 | 36.15154 | -5.34165 | 15 ft | 7 kts | 88° |
| 2026-05-04 21:42 | 36.15173 | -5.34087 | 13 ft | 11 kts | 63° |
| 2026-05-04 21:43 | 36.15156 | -5.34051 | 13 ft | 8 kts | 241° |
| 2026-05-04 21:43 | 36.15150 | -5.34094 | 14 ft | 11 kts | 266° |
| 2026-05-04 21:43 | 36.15136 | -5.34560 | 15 ft | 92 kts | 268° |
| 2026-05-04 21:43 | 36.15105 | -5.35656 | 92 ft | 146 kts | 267° |
| 2026-05-04 21:44 | 36.15074 | -5.36917 | 773 ft | 146 kts | 266° |
| 2026-05-04 21:44 | 36.15025 | -5.38185 | 1513 ft | 148 kts | 265° |
| 2026-05-04 21:44 | 36.14727 | -5.39419 | 2146 ft | 154 kts | 236° |
| 2026-05-04 21:44 | 36.13837 | -5.40294 | 2541 ft | 174 kts | 205° |
| 2026-05-04 21:45 | 36.12528 | -5.40415 | 2925 ft | 201 kts | 171° |
| 2026-05-04 21:45 | 36.11275 | -5.39362 | 3280 ft | 233 kts | 127° |
| 2026-05-04 21:45 | 36.10804 | -5.37281 | 3623 ft | 262 kts | 84° |
| 2026-05-04 21:45 | 36.11524 | -5.35150 | 4354 ft | 268 kts | 46° |
| 2026-05-04 21:46 | 36.13115 | -5.33853 | 4903 ft | 277 kts | 11° |
| 2026-05-04 21:46 | 36.15042 | -5.33507 | 5673 ft | 282 kts | 5° |
| 2026-05-04 21:46 | 36.16987 | -5.32703 | 6408 ft | 296 kts | 31° |
| 2026-05-04 21:46 | 36.18574 | -5.31009 | 7237 ft | 301 kts | 46° |
| 2026-05-04 21:47 | 36.20060 | -5.29129 | 8052 ft | 305 kts | 44° |
| 2026-05-04 21:47 | 36.21645 | -5.27316 | 8838 ft | 310 kts | 41° |
| 2026-05-04 21:47 | 36.22948 | -5.25980 | 9444 ft | 314 kts | 38° |
| 2026-05-04 21:47 | 36.24709 | -5.24319 | 10209 ft | 318 kts | 36° |
| 2026-05-04 21:48 | 36.26606 | -5.22757 | 10723 ft | 332 kts | 28° |
| 2026-05-04 21:48 | 36.28762 | -5.21431 | 11123 ft | 348 kts | 24° |
| 2026-05-04 21:48 | 36.30914 | -5.20225 | 11718 ft | 356 kts | 23° |
| 2026-05-04 21:48 | 36.33215 | -5.18935 | 12232 ft | 368 kts | 24° |
| 2026-05-04 21:49 | 36.35630 | -5.17553 | 12541 ft | 385 kts | 24° |
| 2026-05-04 21:49 | 36.38155 | -5.16082 | 12862 ft | 401 kts | 25° |
| 2026-05-04 21:49 | 36.40308 | -5.14814 | 13321 ft | 408 kts | 25° |
| 2026-05-04 21:49 | 36.42901 | -5.13278 | 14025 ft | 410 kts | 25° |
| 2026-05-04 21:50 | 36.45497 | -5.11735 | 14705 ft | 413 kts | 25° |
| 2026-05-04 21:50 | 36.48152 | -5.10154 | 15355 ft | 417 kts | 25° |
| 2026-05-04 21:50 | 36.50693 | -5.08638 | 15959 ft | 420 kts | 25° |
| 2026-05-04 21:50 | 36.53319 | -5.07070 | 16564 ft | 424 kts | 26° |
| 2026-05-04 21:51 | 36.56009 | -5.05462 | 17164 ft | 427 kts | 26° |
| 2026-05-04 21:51 | 36.58748 | -5.03824 | 17756 ft | 431 kts | 26° |
| 2026-05-04 21:51 | 36.61487 | -5.02253 | 18325 ft | 434 kts | 22° |
| 2026-05-04 21:51 | 36.64329 | -5.00814 | 18898 ft | 437 kts | 21° |
| 2026-05-04 21:52 | 36.67187 | -4.99419 | 19447 ft | 440 kts | 21° |
| 2026-05-04 21:52 | 36.70079 | -4.98008 | 19991 ft | 443 kts | 21° |
| 2026-05-04 21:52 | 36.72980 | -4.96582 | 20528 ft | 446 kts | 21° |
| 2026-05-04 21:52 | 36.75911 | -4.95132 | 21052 ft | 449 kts | 21° |
| 2026-05-04 21:53 | 36.78872 | -4.93658 | 21561 ft | 452 kts | 21° |
| 2026-05-04 21:53 | 36.81846 | -4.92174 | 22063 ft | 455 kts | 21° |
| 2026-05-04 21:53 | 36.84716 | -4.90738 | 22536 ft | 457 kts | 21° |
| 2026-05-04 21:53 | 36.87664 | -4.89261 | 23003 ft | 460 kts | 21° |
| 2026-05-04 21:54 | 36.90690 | -4.87742 | 23461 ft | 462 kts | 21° |
| 2026-05-04 21:54 | 36.93749 | -4.86207 | 23909 ft | 465 kts | 21° |
| 2026-05-04 21:54 | 36.96812 | -4.84666 | 24344 ft | 468 kts | 21° |
| 2026-05-04 21:54 | 36.99881 | -4.83127 | 24767 ft | 470 kts | 22° |
| 2026-05-04 21:55 | 37.03001 | -4.81562 | 25186 ft | 472 kts | 22° |
| 2026-05-04 21:55 | 37.06042 | -4.80033 | 25592 ft | 473 kts | 23° |
| 2026-05-04 21:55 | 37.09179 | -4.78453 | 26023 ft | 474 kts | 24° |
| 2026-05-04 21:55 | 37.12237 | -4.76914 | 26631 ft | 470 kts | 24° |
| 2026-05-04 21:56 | 37.15279 | -4.75385 | 27161 ft | 467 kts | 24° |
| 2026-05-04 21:56 | 37.18332 | -4.73843 | 27517 ft | 469 kts | 24° |
| 2026-05-04 21:56 | 37.21406 | -4.72286 | 27829 ft | 471 kts | 24° |
| 2026-05-04 21:56 | 37.24493 | -4.70721 | 28135 ft | 473 kts | 25° |
| 2026-05-04 21:57 | 37.27588 | -4.69151 | 28433 ft | 475 kts | 25° |
| 2026-05-04 21:57 | 37.30708 | -4.67566 | 28721 ft | 476 kts | 25° |
| 2026-05-04 21:57 | 37.33857 | -4.65966 | 29003 ft | 478 kts | 25° |
| 2026-05-04 21:57 | 37.36955 | -4.64391 | 29359 ft | 477 kts | 25° |
| 2026-05-04 21:58 | 37.40102 | -4.62790 | 29768 ft | 475 kts | 25° |
| 2026-05-04 21:58 | 37.43167 | -4.61229 | 30153 ft | 474 kts | 25° |
| 2026-05-04 21:58 | 37.46257 | -4.59655 | 30524 ft | 473 kts | 25° |
| 2026-05-04 21:58 | 37.49354 | -4.58074 | 30887 ft | 471 kts | 25° |
| 2026-05-04 21:59 | 37.52420 | -4.56508 | 31238 ft | 470 kts | 25° |
| 2026-05-04 21:59 | 37.55463 | -4.54952 | 31580 ft | 469 kts | 25° |
| 2026-05-04 21:59 | 37.58470 | -4.53413 | 31916 ft | 468 kts | 25° |
| 2026-05-04 21:59 | 37.61535 | -4.51842 | 32242 ft | 467 kts | 25° |
| 2026-05-04 22:00 | 37.64588 | -4.50277 | 32555 ft | 466 kts | 25° |
| 2026-05-04 22:00 | 37.67603 | -4.48730 | 32853 ft | 465 kts | 25° |
| 2026-05-04 22:00 | 37.70630 | -4.47174 | 33148 ft | 464 kts | 26° |
| 2026-05-04 22:00 | 37.73646 | -4.45624 | 33432 ft | 463 kts | 26° |
| 2026-05-04 22:01 | 37.76634 | -4.44087 | 33710 ft | 462 kts | 26° |
| 2026-05-04 22:01 | 37.79686 | -4.42514 | 33978 ft | 461 kts | 26° |
| 2026-05-04 22:01 | 37.82644 | -4.40990 | 34226 ft | 460 kts | 26° |
| 2026-05-04 22:01 | 37.85686 | -4.39420 | 34441 ft | 460 kts | 26° |
| 2026-05-04 22:02 | 37.88646 | -4.37890 | 34618 ft | 461 kts | 26° |
| 2026-05-04 22:02 | 37.91673 | -4.36325 | 34779 ft | 462 kts | 26° |
| 2026-05-04 22:02 | 37.94687 | -4.34765 | 34941 ft | 463 kts | 26° |
| 2026-05-04 22:02 | 37.97650 | -4.33220 | 35110 ft | 463 kts | 26° |
| 2026-05-04 22:03 | 38.00671 | -4.31639 | 35275 ft | 463 kts | 26° |
| 2026-05-04 22:03 | 38.03704 | -4.30053 | 35425 ft | 464 kts | 26° |
| 2026-05-04 22:03 | 38.06673 | -4.28505 | 35567 ft | 465 kts | 26° |
| 2026-05-04 22:03 | 38.09741 | -4.26907 | 35704 ft | 465 kts | 26° |
| 2026-05-04 22:04 | 38.12711 | -4.25364 | 35826 ft | 466 kts | 26° |
| 2026-05-04 22:04 | 38.15730 | -4.23801 | 35948 ft | 466 kts | 26° |
| 2026-05-04 22:04 | 38.18756 | -4.22233 | 36017 ft | 467 kts | 26° |
| 2026-05-04 22:05 | 38.24808 | -4.19084 | 36027 ft | 467 kts | 26° |
| 2026-05-04 22:05 | 38.30906 | -4.15900 | 36030 ft | 467 kts | 26° |
| 2026-05-04 22:06 | 38.36943 | -4.12741 | 36031 ft | 468 kts | 26° |
| 2026-05-04 22:06 | 38.43040 | -4.09543 | 36031 ft | 467 kts | 26° |
| 2026-05-04 22:07 | 38.49036 | -4.06393 | 36031 ft | 467 kts | 26° |
| 2026-05-04 22:07 | 38.55083 | -4.03210 | 36031 ft | 467 kts | 26° |
| 2026-05-04 22:08 | 38.61152 | -4.00009 | 36030 ft | 467 kts | 26° |
| 2026-05-04 22:08 | 38.67223 | -3.96802 | 36031 ft | 468 kts | 26° |
| 2026-05-04 22:09 | 38.73243 | -3.93616 | 36030 ft | 467 kts | 26° |
| 2026-05-04 22:09 | 38.79321 | -3.90394 | 36030 ft | 468 kts | 26° |
| 2026-05-04 22:10 | 38.85391 | -3.87170 | 36025 ft | 467 kts | 26° |
| 2026-05-04 22:10 | 38.91484 | -3.83921 | 36012 ft | 470 kts | 26° |
| 2026-05-04 22:11 | 38.97607 | -3.80636 | 36007 ft | 475 kts | 24° |
| 2026-05-04 22:11 | 39.03714 | -3.77369 | 36009 ft | 475 kts | 22° |
| 2026-05-04 22:12 | 39.09904 | -3.74073 | 36005 ft | 475 kts | 22° |
| 2026-05-04 22:12 | 39.15263 | -3.71224 | 36005 ft | 475 kts | 22° |
| 2026-05-04 22:13 | 39.21457 | -3.67914 | 36005 ft | 475 kts | 22° |
| 2026-05-04 22:13 | 39.27532 | -3.64649 | 36005 ft | 475 kts | 22° |
| 2026-05-04 22:14 | 39.33600 | -3.61378 | 36005 ft | 475 kts | 22° |
| 2026-05-04 22:14 | 39.39195 | -3.58356 | 36005 ft | 475 kts | 22° |
| 2026-05-04 22:15 | 39.45063 | -3.55180 | 36005 ft | 475 kts | 22° |
| 2026-05-04 22:15 | 39.51091 | -3.51980 | 36004 ft | 475 kts | 19° |
| 2026-05-04 22:16 | 39.57229 | -3.49490 | 36004 ft | 474 kts | 13° |